KGCK/GCK METAR and TAF weather

Enter ICAO airport designator
Station Type Date Time Source
KGCK METAR 2022/10/01 07:54 UTC NOAA

KGCK 010754Z AUTO 15007KT 10SM CLR 14/08 A3001 RMK AO2 SLP130 T01440078


Station Type Date Time Source
KGCK Decoded METAR 2022/10/01 07:54 UTC NOAA

GARDEN CITY REGIONAL AIRPORT, KS, United States (KGCK) 37-55N 100-43W 877M
Oct 01, 2022 - 03:54 AM EDT / 2022.10.01 0754 UTC
Wind: from the SSE (150 degrees) at 8 MPH (7 KT):0
Visibility: 10 mile(s):0
Sky conditions: clear
Temperature: 57.9 F (14.4 C)
Dew Point: 46.0 F (7.8 C)
Relative Humidity: 64%
Pressure (altimeter): 30.01 in. Hg (1016 hPa)
ob: KGCK 010754Z AUTO 15007KT 10SM CLR 14/08 A3001 RMK AO2 SLP130 T01440078
cycle: 8

Station Type Date Time Source
KGCK TAF 2022/10/01 06:22 UTC NOAA

TAF KGCK 010520Z 0106/0206 17014KT P6SM FEW250
FM020000 14016KT P6SM SKC

Example: see airport list